Aérodrome :
LOGIN :

S'inscrire | Disclaimer

   EN    FR    IT 

 










Légende :    VFR   VFR Marginal   IFR   IFR Intensif   IFR Très Intensif
Visi : 
Plafond : 
>= 8 km
>= 3000ft
5 à 8 km
1000 à 3000 ft
1500m à 5 km
500 à 1000 ft
800 à 1500m
200 à 500 ft
< 800m
< 200 ft
Symboles :   Orages  Brouillard  Fortes neiges  Fortes précipitations  Vent > 20 kt
SIGMETs :   Divers  Orages  Givrage  Turbulence  Onde Orograph.  Cendres Volcan.







- Altitude de l'aérodrome : 446 ft
- Code IATA : VNE
- Voir les cartes d'approche


LFRV - Vannes-Meucon

DERNIER METAR :
  • 011730Z AUTO 27011KT 9999 BKN016 BKN028 BKN033 10/08 Q1006

METARs EXPIRÉS :
  • 011700Z AUTO 28012KT 250V310 9999 RA BKN005/// BKN016/// OVC021/// ///TCU 10/09 Q1006
  • 011630Z AUTO 25009KT 220V280 9999 -RA OVC004 11/10 Q1005
  • 011600Z AUTO 26010KT 230V310 9999 -RA OVC005 11/10 Q1005
  • 011530Z AUTO 26015G27KT 230V290 5000 -RA BR OVC004/// ///TCU 11/11 Q1004
  • 011500Z AUTO 24016G28KT 200V270 1800 RA BR OVC003/// ///TCU 11/11 Q1004

TAF N/A
Pas de NOTAMs connus pour ce terrain.
1 SIGMET publié pour la FIR Brest (LFRR) :
 
Turbulence forte
LFRR SIGMET 2 VALID 011600/012000 LFPW
LFRR BREST FIR/UIR SEV TURB OBS WI N4715 W00015 - N4630 W00015 - N4630 W00130 - N4530 W00145 - N4715 W00400 - N4745 W00115 SFC/FL040 STNR NC=



MET'MAP, la Météo Aéronautique d'un coup d'oeil ! - Copyright ORBIFLY Décembre 2007 - Disclaimer

ORBIFLY MET'MAP TEAM :

Programmation & Développement : Alexandra Zaïnal
Conception & Développement : Baudouin d'Aumeries
Co-Programmation & Développement : Marc-Olivier Méhu
Soutien technique & logistique : Manuel Goepfert

Contact : metmap@orbifly.com




SOURCES & CREDITS :

   NOAA